createdAt,value
2019-01-22T00:00:32.593Z,49.77
2019-01-22T00:02:59.947Z,49.80
2019-01-22T00:05:27.310Z,48.73
2019-01-22T00:07:54.762Z,55.75
2019-01-22T00:10:21.974Z,57.55
2019-01-22T00:12:49.314Z,53.68
2019-01-22T00:15:16.850Z,49.30
2019-01-22T00:17:44.103Z,53.48
2019-01-22T00:20:11.835Z,53.80
2019-01-22T00:22:39.186Z,50.28
2019-01-22T00:25:08.098Z,65.65
2019-01-22T00:27:35.539Z,50.90
2019-01-22T00:30:04.457Z,57.03
2019-01-22T00:32:31.917Z,59.40
2019-01-22T00:34:59.269Z,61.60
2019-01-22T00:37:26.737Z,62.60
2019-01-22T00:39:54.070Z,57.08
2019-01-22T00:42:21.432Z,65.70
2019-01-22T00:44:48.789Z,57.90
2019-01-22T00:47:16.418Z,54.13
2019-01-22T00:49:43.643Z,49.08
2019-01-22T00:52:11.089Z,50.92
2019-01-22T00:54:38.310Z,52.78
2019-01-22T00:57:05.526Z,49.08
2019-01-22T00:59:32.773Z,47.98
2019-01-22T01:02:00.510Z,54.75
2019-01-22T01:04:27.922Z,52.00
2019-01-22T01:06:55.293Z,53.20
2019-01-22T01:09:22.625Z,52.20
2019-01-22T01:11:49.858Z,46.73
2019-01-22T01:14:17.194Z,47.85
2019-01-22T01:16:44.434Z,47.75
2019-01-22T01:19:12.094Z,43.35
2019-01-22T01:21:39.453Z,42.17
2019-01-22T01:24:06.674Z,44.98
2019-01-22T01:26:34.011Z,44.85
2019-01-22T01:29:01.249Z,50.03
2019-01-22T01:31:28.515Z,46.40
2019-01-22T01:33:56.262Z,53.87
2019-01-22T01:36:23.714Z,57.43
2019-01-22T01:38:51.030Z,53.98
2019-01-22T01:41:18.493Z,61.50
2019-01-22T01:43:45.950Z,45.63
2019-01-22T01:46:13.205Z,44.45
2019-01-22T01:48:40.453Z,52.03
2019-01-22T01:51:08.013Z,45.52
2019-01-22T01:53:35.246Z,42.67
2019-01-22T01:56:02.497Z,48.35
2019-01-22T01:58:29.850Z,49.25
2019-01-22T02:00:57.193Z,43.98
2019-01-22T02:03:24.542Z,46.83
2019-01-22T02:05:51.793Z,54.13
2019-01-22T02:08:19.241Z,47.53
2019-01-22T02:10:46.471Z,51.85
2019-01-22T02:13:21.505Z,50.67
2019-01-22T02:16:07.090Z,45.10
2019-01-22T02:18:50.513Z,48.98
2019-01-22T02:21:55.490Z,48.17
2019-01-22T02:24:52.058Z,65.25
2019-01-22T02:27:49.772Z,43.23
2019-01-22T02:30:37.697Z,41.15
2019-01-22T02:33:36.691Z,50.08
2019-01-22T02:36:38.865Z,45.40
2019-01-22T02:39:43.898Z,45.05
2019-01-22T02:42:37.271Z,44.70
2019-01-22T02:45:24.682Z,45.23
2019-01-22T02:48:14.370Z,42.15
2019-01-22T02:51:19.557Z,48.13
2019-01-22T02:54:17.919Z,52.05
2019-01-22T02:57:23.132Z,52.38
2019-01-22T03:00:39.886Z,43.40
2019-01-22T03:03:49.886Z,63.05
2019-01-22T03:07:05.153Z,59.00
2019-01-22T03:10:11.023Z,53.25
2019-01-22T03:12:57.650Z,56.15
2019-01-22T03:15:48.958Z,52.70
2019-01-22T03:18:54.212Z,47.85
2019-01-22T03:21:34.343Z,43.98
2019-01-22T03:24:40.750Z,41.60
2019-01-22T03:27:46.474Z,50.10
2019-01-22T03:30:49.826Z,39.67
2019-01-22T03:34:10.943Z,41.88
2019-01-22T03:37:20.731Z,47.70
2019-01-22T03:40:10.325Z,42.15
2019-01-22T03:43:01.825Z,52.13
2019-01-22T03:45:58.147Z,45.45
2019-01-22T03:49:10.105Z,53.63
2019-01-22T03:52:04.225Z,53.58
2019-01-22T03:54:54.237Z,57.27
2019-01-22T03:57:25.930Z,52.65
2019-01-22T03:59:53.311Z,51.02
2019-01-22T04:02:22.334Z,46.18
2019-01-22T04:04:49.581Z,49.63
2019-01-22T04:07:16.814Z,47.40
2019-01-22T04:10:03.351Z,48.85
2019-01-22T04:12:30.709Z,53.23
2019-01-22T04:14:59.864Z,44.80
2019-01-22T04:17:27.208Z,47.23
2019-01-22T04:19:54.974Z,50.60
2019-01-22T04:22:34.235Z,56.23
2019-01-22T04:25:17.464Z,46.50
2019-01-22T04:28:34.943Z,48.28
2019-01-22T04:31:17.200Z,64.60
2019-01-22T04:34:24.525Z,55.52
2019-01-22T04:37:20.918Z,64.27
2019-01-22T04:40:15.578Z,59.30
2019-01-22T04:43:04.369Z,50.63
2019-01-22T04:46:31.925Z,52.23
2019-01-22T04:49:43.663Z,56.63
2019-01-22T04:52:22.250Z,61.60
2019-01-22T04:55:31.553Z,45.83
2019-01-22T04:58:32.525Z,49.55
2019-01-22T05:01:33.874Z,55.28
2019-01-22T05:04:26.087Z,48.42
2019-01-22T05:07:33.926Z,53.25
2019-01-22T05:10:43.642Z,42.43
2019-01-22T05:13:54.539Z,44.85
2019-01-22T05:17:15.953Z,48.75
2019-01-22T05:20:18.334Z,58.98
2019-01-22T05:23:08.502Z,108.20
2019-01-22T05:26:12.237Z,61.05
2019-01-22T05:29:16.216Z,45.15
2019-01-22T05:32:08.782Z,52.70
2019-01-22T05:35:22.326Z,53.55
2019-01-22T05:38:55.613Z,44.23
2019-01-22T05:42:14.043Z,46.88
2019-01-22T05:44:49.918Z,43.68
2019-01-22T05:47:50.985Z,47.73
2019-01-22T05:50:39.217Z,45.00
2019-01-22T05:53:53.100Z,47.10
2019-01-22T05:56:29.222Z,47.17
2019-01-22T05:59:32.833Z,46.48
2019-01-22T06:02:09.911Z,41.50
2019-01-22T06:05:18.506Z,41.85
2019-01-22T06:08:03.233Z,42.70
2019-01-22T06:11:09.142Z,45.33
2019-01-22T06:14:27.663Z,64.85
2019-01-22T06:17:17.123Z,47.67
2019-01-22T06:20:06.138Z,54.77
2019-01-22T06:23:23.576Z,62.98
2019-01-22T06:26:42.858Z,53.95
2019-01-22T06:29:57.858Z,50.05
2019-01-22T06:32:47.284Z,41.58
2019-01-22T06:35:53.561Z,52.93
2019-01-22T06:38:58.574Z,46.75
2019-01-22T06:41:42.237Z,57.53
2019-01-22T06:44:51.869Z,70.90
2019-01-22T06:47:38.155Z,55.75
2019-01-22T06:50:35.477Z,46.77
2019-01-22T06:53:42.887Z,62.50
2019-01-22T06:56:22.245Z,58.30
2019-01-22T06:59:20.751Z,53.80
2019-01-22T07:02:01.622Z,63.75
2019-01-22T07:04:47.061Z,67.67
2019-01-22T07:07:55.266Z,45.92
2019-01-22T07:11:12.722Z,45.48
2019-01-22T07:14:03.290Z,61.65
2019-01-22T07:17:11.403Z,46.92
2019-01-22T07:20:26.510Z,60.90
2019-01-22T07:23:20.690Z,49.73
2019-01-22T07:26:41.962Z,82.02
2019-01-22T07:29:40.181Z,47.80
2019-01-22T07:32:35.640Z,49.27
2019-01-22T07:35:21.682Z,53.68
2019-01-22T07:38:20.595Z,92.33
2019-01-22T07:41:14.254Z,90.28
2019-01-22T07:44:18.178Z,68.15
2019-01-22T07:47:25.994Z,72.80
2019-01-22T07:50:47.520Z,60.15
2019-01-22T07:53:48.254Z,79.53
2019-01-22T07:57:01.862Z,68.10
2019-01-22T07:59:39.121Z,61.08
2019-01-22T08:02:54.142Z,77.22
2019-01-22T08:05:57.933Z,67.37
2019-01-22T08:08:50.636Z,68.67
2019-01-22T08:11:42.006Z,71.57
2019-01-22T08:14:42.895Z,56.02
2019-01-22T08:17:41.414Z,73.75
2019-01-22T08:20:44.418Z,59.13
2019-01-22T08:23:27.181Z,71.10
2019-01-22T08:26:16.483Z,76.85
2019-01-22T08:29:14.402Z,73.95
2019-01-22T08:32:26.607Z,80.00
2019-01-22T08:35:26.484Z,77.60
2019-01-22T08:38:33.633Z,84.80
2019-01-22T08:41:42.919Z,91.30
2019-01-22T08:44:27.987Z,66.80
2019-01-22T08:47:40.590Z,101.85
2019-01-22T08:50:45.010Z,86.53
2019-01-22T08:53:43.497Z,94.42
2019-01-22T08:56:49.055Z,99.20
2019-01-22T08:59:54.615Z,85.67
2019-01-22T09:03:06.742Z,95.87
2019-01-22T09:06:03.904Z,80.05
2019-01-22T09:08:57.482Z,81.15
2019-01-22T09:12:17.806Z,85.22
2019-01-22T09:15:09.252Z,79.00
2019-01-22T09:17:58.190Z,72.05
2019-01-22T09:21:13.841Z,72.65
2019-01-22T09:23:59.154Z,70.35
2019-01-22T09:26:58.354Z,67.22
2019-01-22T09:29:59.934Z,80.77
2019-01-22T09:32:55.422Z,81.10
2019-01-22T09:36:06.890Z,82.72
2019-01-22T09:38:34.364Z,76.55
2019-01-22T09:41:01.689Z,67.97
2019-01-22T09:43:28.926Z,72.80
2019-01-22T09:45:56.138Z,77.65
2019-01-22T09:48:23.372Z,59.90
2019-01-22T09:50:50.607Z,59.25
2019-01-22T09:53:17.956Z,62.95
2019-01-22T09:55:45.162Z,51.65
2019-01-22T09:58:12.533Z,61.35
2019-01-22T10:00:39.887Z,55.20
2019-01-22T10:03:07.406Z,52.85
2019-01-22T10:05:34.747Z,50.28
2019-01-22T10:08:01.958Z,50.55
2019-01-22T10:10:29.292Z,52.03
2019-01-22T10:12:57.841Z,69.95
2019-01-22T10:15:25.169Z,63.42
2019-01-22T10:17:52.413Z,70.28
2019-01-22T10:20:21.570Z,66.05
2019-01-22T10:22:49.525Z,65.40
2019-01-22T10:25:16.910Z,69.53
2019-01-22T10:27:44.274Z,83.92
2019-01-22T10:30:14.337Z,75.03
2019-01-22T10:32:41.589Z,73.22
2019-01-22T10:35:09.058Z,75.72
2019-01-22T10:37:36.321Z,82.55
2019-01-22T10:40:05.095Z,74.62
2019-01-22T10:42:32.340Z,78.87
2019-01-22T10:44:59.569Z,82.25
2019-01-22T10:47:26.920Z,75.25
2019-01-22T10:49:54.158Z,77.90
2019-01-22T10:52:21.391Z,86.22
2019-01-22T10:54:48.645Z,70.50
2019-01-22T10:57:15.882Z,75.78
2019-01-22T10:59:43.111Z,78.80
2019-01-22T11:02:10.350Z,76.30
2019-01-22T11:04:37.586Z,65.17
2019-01-22T11:07:04.810Z,81.85
2019-01-22T11:09:32.602Z,83.55
2019-01-22T11:11:59.950Z,79.12
2019-01-22T11:14:28.162Z,76.40
2019-01-22T11:16:55.418Z,84.65
2019-01-22T11:19:22.666Z,72.70
2019-01-22T11:21:49.874Z,93.62
2019-01-22T11:24:17.126Z,75.00
2019-01-22T11:26:44.354Z,76.35
2019-01-22T11:29:11.606Z,81.78
2019-01-22T11:31:38.969Z,70.55
2019-01-22T11:34:06.214Z,63.63
2019-01-22T11:36:33.545Z,65.25
2019-01-22T11:39:00.782Z,57.70
2019-01-22T11:41:28.019Z,68.05
2019-01-22T11:43:55.263Z,75.70
2019-01-22T11:46:22.511Z,63.70
2019-01-22T11:48:49.753Z,59.00
2019-01-22T11:51:17.141Z,70.50
2019-01-22T11:53:44.383Z,70.05
2019-01-22T11:56:11.621Z,71.22
2019-01-22T11:58:38.877Z,79.22
2019-01-22T12:01:06.418Z,74.87
2019-01-22T12:03:33.667Z,69.77
2019-01-22T12:06:01.126Z,82.92
2019-01-22T12:08:28.621Z,66.90
2019-01-22T12:10:55.865Z,68.40
2019-01-22T12:13:23.098Z,68.80
2019-01-22T12:15:51.289Z,75.57
2019-01-22T12:18:18.538Z,71.00
2019-01-22T12:20:47.129Z,66.37
2019-01-22T12:23:14.515Z,55.33
2019-01-22T12:25:41.774Z,50.17
2019-01-22T12:28:09.027Z,59.38
2019-01-22T12:30:36.439Z,72.80
2019-01-22T12:33:04.102Z,52.10
2019-01-22T12:35:31.318Z,54.20
2019-01-22T12:37:58.738Z,57.15
2019-01-22T12:40:26.014Z,55.00
2019-01-22T12:42:53.760Z,56.23
2019-01-22T12:45:23.453Z,60.50
2019-01-22T12:47:50.699Z,85.10
2019-01-22T12:50:25.346Z,85.10
2019-01-22T12:52:48.302Z,78.72
2019-01-22T12:55:15.747Z,76.07
2019-01-22T12:57:43.215Z,69.42
2019-01-22T13:00:19.532Z,72.00
2019-01-22T13:02:46.782Z,77.05
2019-01-22T13:05:22.198Z,76.82
2019-01-22T13:07:49.442Z,77.92
2019-01-22T13:10:16.732Z,71.47
2019-01-22T13:12:44.014Z,92.50
2019-01-22T13:15:11.308Z,93.25
2019-01-22T13:17:38.618Z,83.27
2019-01-22T13:20:10.760Z,75.42
2019-01-22T13:22:38.126Z,82.42
2019-01-22T13:25:07.254Z,77.60
2019-01-22T13:27:34.701Z,86.92
2019-01-22T13:30:02.498Z,88.50
2019-01-22T13:32:29.788Z,78.00
2019-01-22T13:34:57.044Z,89.90
2019-01-22T13:37:24.380Z,95.87
2019-01-22T13:39:51.640Z,104.92
2019-01-22T13:42:18.985Z,100.55
2019-01-22T13:44:46.249Z,122.15
2019-01-22T13:47:13.509Z,107.80
2019-01-22T13:49:40.759Z,138.90
2019-01-22T13:52:07.990Z,126.87
2019-01-22T13:54:35.238Z,140.85
2019-01-22T13:57:02.458Z,156.25
2019-01-22T13:59:29.717Z,151.30
2019-01-22T14:01:56.958Z,169.13
2019-01-22T14:04:24.217Z,154.50
2019-01-22T14:06:51.447Z,176.45
2019-01-22T14:09:18.706Z,189.90
2019-01-22T14:11:45.955Z,195.50
2019-01-22T14:14:13.185Z,177.00
2019-01-22T14:16:40.438Z,191.88
2019-01-22T14:19:08.589Z,180.57
2019-01-22T14:21:35.883Z,201.30
2019-01-22T14:24:03.231Z,206.05
2019-01-22T14:26:30.646Z,204.43
2019-01-22T14:28:57.878Z,182.40
2019-01-22T14:31:25.130Z,179.82
2019-01-22T14:33:52.357Z,161.97
2019-01-22T14:36:19.614Z,178.53
2019-01-22T14:38:46.878Z,161.28
2019-01-22T14:41:14.129Z,154.82
2019-01-22T14:43:41.362Z,216.78
2019-01-22T14:46:08.610Z,192.65
2019-01-22T14:48:35.854Z,164.97
2019-01-22T14:51:03.410Z,193.55
2019-01-22T14:53:30.754Z,167.85
2019-01-22T14:55:58.002Z,174.40
2019-01-22T14:58:25.230Z,257.05
2019-01-22T15:00:52.470Z,258.57
2019-01-22T15:03:19.707Z,206.55
2019-01-22T15:05:46.965Z,215.85
2019-01-22T15:08:14.226Z,211.90
2019-01-22T15:10:41.611Z,199.10
2019-01-22T15:13:08.936Z,176.68
2019-01-22T15:15:36.177Z,201.18
2019-01-22T15:18:03.823Z,175.22
2019-01-22T15:20:32.029Z,181.10
2019-01-22T15:22:59.296Z,185.50
2019-01-22T15:25:26.557Z,251.30
2019-01-22T15:27:54.013Z,190.90
2019-01-22T15:30:26.878Z,178.10
2019-01-22T15:32:54.110Z,186.03
2019-01-22T15:35:21.375Z,171.85
2019-01-22T15:37:48.633Z,175.40
2019-01-22T15:40:18.346Z,174.65
2019-01-22T15:42:45.580Z,158.78
2019-01-22T15:45:13.165Z,157.55
2019-01-22T15:47:40.506Z,170.28
2019-01-22T15:50:09.718Z,151.22
2019-01-22T15:52:36.969Z,181.45
2019-01-22T15:55:06.351Z,189.75
2019-01-22T15:57:33.577Z,175.65
2019-01-22T16:00:00.865Z,175.65
2019-01-22T16:02:28.561Z,192.92
2019-01-22T16:04:55.821Z,199.42
2019-01-22T16:07:23.070Z,178.20
2019-01-22T16:09:50.326Z,166.30
2019-01-22T16:12:17.558Z,168.45
2019-01-22T16:14:44.789Z,181.15
2019-01-22T16:17:31.544Z,160.22
2019-01-22T16:19:58.762Z,155.80
2019-01-22T16:22:26.924Z,186.00
2019-01-22T16:24:54.190Z,163.50
2019-01-22T16:27:21.427Z,175.32
2019-01-22T16:29:48.685Z,165.52
2019-01-22T16:32:15.974Z,171.28
2019-01-22T16:34:43.226Z,166.85
2019-01-22T16:37:10.483Z,166.85
2019-01-22T16:39:37.746Z,162.85
2019-01-22T16:42:05.191Z,163.18
2019-01-22T16:44:32.563Z,178.57
2019-01-22T16:46:59.910Z,162.18
2019-01-22T16:49:27.166Z,174.90
2019-01-22T16:51:54.414Z,160.05
2019-01-22T16:54:21.870Z,174.42
2019-01-22T16:56:49.197Z,197.37
2019-01-22T16:59:16.448Z,185.55
2019-01-22T17:01:43.674Z,156.95
2019-01-22T17:04:10.922Z,165.18
2019-01-22T17:06:38.279Z,150.22
2019-01-22T17:09:07.790Z,157.55
2019-01-22T17:11:35.019Z,194.50
2019-01-22T17:14:02.253Z,162.80
2019-01-22T17:16:29.491Z,169.22
2019-01-22T17:18:56.717Z,167.15
2019-01-22T17:21:24.084Z,174.65
2019-01-22T17:23:51.379Z,156.87
2019-01-22T17:26:18.717Z,152.57
2019-01-22T17:28:45.970Z,186.40
2019-01-22T17:31:38.407Z,191.47
2019-01-22T17:34:05.737Z,169.93
2019-01-22T17:36:32.971Z,153.47
2019-01-22T17:39:00.324Z,175.78
2019-01-22T17:41:27.577Z,182.45
2019-01-22T17:43:54.979Z,208.17
2019-01-22T17:46:22.230Z,193.00
2019-01-22T17:48:49.451Z,185.75
2019-01-22T17:51:16.692Z,222.88
2019-01-22T17:53:43.943Z,179.20
2019-01-22T17:56:11.354Z,156.15
2019-01-22T17:58:38.609Z,152.40
2019-01-22T18:01:05.971Z,208.95
2019-01-22T18:03:33.459Z,189.00
2019-01-22T18:06:00.714Z,180.00
2019-01-22T18:08:28.155Z,170.43
2019-01-22T18:10:55.518Z,177.90
2019-01-22T18:13:22.770Z,175.53
2019-01-22T18:15:50.014Z,170.85
2019-01-22T18:18:17.242Z,180.25
2019-01-22T18:20:44.486Z,178.27
2019-01-22T18:23:11.818Z,151.82
2019-01-22T18:25:39.153Z,153.45
2019-01-22T18:28:06.406Z,159.45
2019-01-22T18:30:33.880Z,158.57
2019-01-22T18:33:01.234Z,153.53
2019-01-22T18:35:37.845Z,162.77
2019-01-22T18:38:00.814Z,176.75
2019-01-22T18:40:28.071Z,195.35
2019-01-22T18:42:55.457Z,159.75
2019-01-22T18:45:22.881Z,161.03
2019-01-22T18:47:50.121Z,176.07
2019-01-22T18:50:19.394Z,169.93
2019-01-22T18:52:46.821Z,149.80
2019-01-22T18:55:14.068Z,160.88
2019-01-22T18:57:41.430Z,147.62
2019-01-22T19:00:11.254Z,145.55
2019-01-22T19:02:38.486Z,170.38
2019-01-22T19:05:06.586Z,157.47
2019-01-22T19:07:33.826Z,151.93
2019-01-22T19:10:03.929Z,179.70
2019-01-22T19:12:30.251Z,226.12
2019-01-22T19:14:57.490Z,220.52
2019-01-22T19:17:24.702Z,170.95
2019-01-22T19:19:52.091Z,197.10
2019-01-22T19:22:19.350Z,164.62
2019-01-22T19:24:46.573Z,220.27
2019-01-22T19:27:13.839Z,211.97
2019-01-22T19:29:41.087Z,241.12
2019-01-22T19:32:08.315Z,207.80
2019-01-22T19:34:35.558Z,223.53
2019-01-22T19:37:02.778Z,363.12
2019-01-22T19:39:30.051Z,243.65
2019-01-22T19:41:57.307Z,234.00
2019-01-22T19:44:24.562Z,241.30
2019-01-22T19:46:51.886Z,204.75
2019-01-22T19:49:19.127Z,228.05
2019-01-22T19:51:46.373Z,214.68
2019-01-22T19:54:13.741Z,204.97
2019-01-22T19:56:40.992Z,202.60
2019-01-22T19:59:08.230Z,178.40
2019-01-22T20:01:35.454Z,199.60
2019-01-22T20:04:04.605Z,177.38
2019-01-22T20:06:33.249Z,189.32
2019-01-22T20:09:00.528Z,167.70
2019-01-22T20:11:27.975Z,189.77
2019-01-22T20:13:55.257Z,199.17
2019-01-22T20:16:22.478Z,209.43
2019-01-22T20:18:49.817Z,207.85
2019-01-22T20:21:17.066Z,182.82
2019-01-22T20:23:58.272Z,197.07
2019-01-22T20:26:25.523Z,192.43
2019-01-22T20:28:52.960Z,173.45
2019-01-22T20:31:20.293Z,202.07
2019-01-22T20:33:47.531Z,189.60
2019-01-22T20:36:14.763Z,175.18
2019-01-22T20:38:42.098Z,199.10
2019-01-22T20:41:09.616Z,200.55
2019-01-22T20:43:36.866Z,196.78
2019-01-22T20:46:04.131Z,235.48
2019-01-22T20:48:31.379Z,197.70
2019-01-22T20:50:58.709Z,158.32
2019-01-22T20:53:25.946Z,170.82
2019-01-22T20:55:53.274Z,183.12
2019-01-22T20:58:20.550Z,177.60
2019-01-22T21:00:47.797Z,190.77
2019-01-22T21:03:16.009Z,194.35
2019-01-22T21:05:43.353Z,206.87
2019-01-22T21:08:10.598Z,203.65
2019-01-22T21:10:37.839Z,190.65
2019-01-22T21:13:05.082Z,177.85
2019-01-22T21:15:32.322Z,198.62
2019-01-22T21:17:59.577Z,213.75
2019-01-22T21:20:26.813Z,205.35
2019-01-22T21:22:54.142Z,229.32
2019-01-22T21:25:21.414Z,176.72
2019-01-22T21:27:48.779Z,183.30
2019-01-22T21:30:27.729Z,182.97
2019-01-22T21:32:55.250Z,213.92
2019-01-22T21:35:23.322Z,201.98
2019-01-22T21:37:50.761Z,191.15
2019-01-22T21:40:17.994Z,216.02
2019-01-22T21:42:45.326Z,201.82
2019-01-22T21:45:13.196Z,213.50
2019-01-22T21:47:40.542Z,182.80
2019-01-22T21:50:09.527Z,198.70
2019-01-22T21:52:36.771Z,234.52
2019-01-22T21:55:05.861Z,201.92
2019-01-22T21:57:33.094Z,192.55
2019-01-22T22:00:00.189Z,176.93
2019-01-22T22:02:27.478Z,156.50
2019-01-22T22:04:54.803Z,207.62
2019-01-22T22:07:22.158Z,221.30
2019-01-22T22:09:49.378Z,203.67
2019-01-22T22:12:16.727Z,214.38
2019-01-22T22:14:43.954Z,181.90
2019-01-22T22:17:11.218Z,181.37
2019-01-22T22:19:38.462Z,173.20
2019-01-22T22:22:05.553Z,204.85
2019-01-22T22:24:32.814Z,190.50
2019-01-22T22:27:00.050Z,193.60
2019-01-22T22:29:27.298Z,227.18
2019-01-22T22:31:54.666Z,186.80
2019-01-22T22:34:22.021Z,208.87
2019-01-22T22:36:49.427Z,234.05
2019-01-22T22:39:16.916Z,228.22
2019-01-22T22:41:44.212Z,207.65
2019-01-22T22:44:12.016Z,199.77
2019-01-22T22:46:39.514Z,231.47
2019-01-22T22:49:06.757Z,199.25
2019-01-22T22:51:33.993Z,194.13
2019-01-22T22:54:01.223Z,176.30
2019-01-22T22:56:28.446Z,193.45
2019-01-22T22:58:55.686Z,205.18
2019-01-22T23:01:37.258Z,214.12
2019-01-22T23:04:05.618Z,198.10
2019-01-22T23:06:34.738Z,192.85
2019-01-22T23:09:05.690Z,184.93
2019-01-22T23:11:33.033Z,181.90
2019-01-22T23:14:00.288Z,191.35
2019-01-22T23:16:27.525Z,191.37
2019-01-22T23:18:54.889Z,163.40
2019-01-22T23:21:22.106Z,182.60
2019-01-22T23:23:49.486Z,182.15
2019-01-22T23:26:16.726Z,212.00
2019-01-22T23:28:43.966Z,197.55
2019-01-22T23:31:11.222Z,174.07
2019-01-22T23:33:39.405Z,188.05
2019-01-22T23:36:06.646Z,326.32
2019-01-22T23:38:33.902Z,198.35
2019-01-22T23:41:01.150Z,171.87
2019-01-22T23:43:28.368Z,188.97
2019-01-22T23:45:55.613Z,166.57
2019-01-22T23:48:22.866Z,187.85
2019-01-22T23:50:50.127Z,181.72
2019-01-22T23:53:17.372Z,181.72
2019-01-22T23:55:44.621Z,192.15
2019-01-22T23:58:11.890Z,196.93
